Time;durP1;ratioP1;P1;durP2;ratioP2;P2;SDS_P1;SDS_P2;PMS_P1;PMS_P2;Temp;Humidity;BMP_temperature;BMP_pressure;BME280_temperature;BME280_humidity;BME280_pressure;Samples;Min_cycle;Max_cycle;Signal;HPM_P1;HPM_P2
2023/04/16 00:01:06;;;;;;;3.37;2.90;;;;;;;12.78;56.34;94321.59;5074288;28;20515;-77
2023/04/16 00:03:32;;;;;;;4.20;3.07;;;;;;;12.67;57.12;94314.78;5074261;28;20446;-78
2023/04/16 00:05:59;;;;;;;4.73;2.77;;;;;;;12.56;57.17;94320.31;5073436;28;20457;-77
2023/04/16 00:08:26;;;;;;;4.20;3.00;;;;;;;12.49;57.37;94321.94;5054844;28;20444;-78
2023/04/16 00:10:53;;;;;;;4.87;3.10;;;;;;;12.40;57.80;94315.78;5073473;28;20479;-77
2023/04/16 00:13:21;;;;;;;3.27;2.50;;;;;;;12.44;57.81;94315.50;5074002;28;20457;-78
2023/04/16 00:15:50;;;;;;;4.93;3.27;;;;;;;12.43;56.93;94322.53;5074085;28;20882;-77
2023/04/16 00:18:16;;;;;;;8.00;3.97;;;;;;;12.47;57.21;94318.66;5074218;28;20440;-77
2023/04/16 00:20:43;;;;;;;2.93;2.70;;;;;;;12.51;56.91;94313.88;5073506;28;20499;-77
2023/04/16 00:23:10;;;;;;;3.70;3.17;;;;;;;12.49;56.51;94316.69;5073828;28;20480;-76
2023/04/16 00:25:37;;;;;;;4.20;3.17;;;;;;;12.51;56.74;94319.16;5073089;28;20462;-77
2023/04/16 00:28:05;;;;;;;9.00;3.83;;;;;;;12.49;57.37;94323.75;5037560;28;21141;-77
2023/04/16 00:30:33;;;;;;;3.93;3.50;;;;;;;12.46;57.21;94322.25;5072583;28;20446;-76
2023/04/16 00:33:01;;;;;;;3.70;3.10;;;;;;;12.41;56.91;94320.06;5073607;28;20472;-77
2023/04/16 00:35:28;;;;;;;5.07;3.53;;;;;;;12.38;56.73;94320.38;5073702;28;20486;-77
2023/04/16 00:37:55;;;;;;;3.43;2.77;;;;;;;12.36;57.62;94319.72;5073740;28;20854;-76
2023/04/16 00:40:22;;;;;;;13.10;3.60;;;;;;;12.31;57.55;94314.09;5073884;28;20440;-77
2023/04/16 00:42:48;;;;;;;5.37;3.70;;;;;;;12.26;57.79;94315.53;5038151;28;20437;-76
2023/04/16 00:45:15;;;;;;;3.20;2.90;;;;;;;12.19;57.74;94310.06;5073597;28;20448;-77
2023/04/16 00:47:44;;;;;;;3.87;3.27;;;;;;;12.23;57.56;94307.97;5073995;28;20781;-77
2023/04/16 00:50:11;;;;;;;4.67;3.50;;;;;;;12.21;57.92;94315.19;5073808;28;20451;-76
2023/04/16 00:52:39;;;;;;;5.03;2.80;;;;;;;12.14;57.97;94312.31;5073483;28;20502;-76
2023/04/16 00:55:12;;;;;;;4.93;3.63;;;;;;;12.15;57.68;94303.47;5073724;28;20515;-77
2023/04/16 00:57:38;;;;;;;5.37;3.60;;;;;;;12.09;57.95;94304.88;5073099;28;20481;-77
2023/04/16 01:00:08;;;;;;;6.80;4.43;;;;;;;12.15;57.42;94305.28;5073452;28;20445;-76
2023/04/16 01:02:35;;;;;;;6.87;3.30;;;;;;;12.16;57.66;94310.38;5073224;28;20437;-76
2023/04/16 01:05:05;;;;;;;3.43;3.10;;;;;;;12.12;58.03;94316.09;5072852;28;20440;-77
2023/04/16 01:07:32;;;;;;;4.33;3.40;;;;;;;12.09;57.95;94304.06;5072823;28;20928;-77
2023/04/16 01:09:59;;;;;;;4.93;3.90;;;;;;;12.00;57.64;94299.75;5073192;28;20444;-77
2023/04/16 01:12:26;;;;;;;4.50;3.33;;;;;;;12.02;57.72;94306.50;5073163;28;20454;-76
2023/04/16 01:14:53;;;;;;;11.73;3.67;;;;;;;12.02;57.95;94303.03;5072807;28;20445;-77
2023/04/16 01:17:19;;;;;;;3.40;3.10;;;;;;;11.96;57.44;94307.09;5073025;28;21359;-78
2023/04/16 01:19:46;;;;;;;4.60;3.67;;;;;;;11.96;57.65;94301.84;5073298;28;20445;-77
2023/04/16 01:22:15;;;;;;;3.63;3.20;;;;;;;11.77;58.31;94284.41;5073076;28;20475;-78
2023/04/16 01:24:41;;;;;;;3.63;2.97;;;;;;;11.74;58.69;94300.47;5072752;28;20473;-77
2023/04/16 01:27:08;;;;;;;6.33;3.30;;;;;;;11.74;58.88;94303.13;5072939;28;20449;-77
2023/04/16 01:29:35;;;;;;;4.47;3.43;;;;;;;11.69;59.29;94302.75;5072819;28;20456;-77
2023/04/16 01:32:02;;;;;;;7.63;2.90;;;;;;;11.66;59.67;94297.78;5072769;28;20452;-78
2023/04/16 01:34:28;;;;;;;5.33;3.90;;;;;;;11.63;59.79;94292.84;5072820;28;21565;-78
2023/04/16 01:36:55;;;;;;;4.60;3.70;;;;;;;11.67;59.12;94301.25;5072760;28;20979;-78
2023/04/16 01:39:24;;;;;;;3.10;2.80;;;;;;;11.61;58.29;94289.53;5073090;28;20527;-77
2023/04/16 01:41:50;;;;;;;5.10;3.63;;;;;;;11.63;59.28;94300.72;5072583;28;20445;-78
2023/04/16 01:44:17;;;;;;;3.70;3.40;;;;;;;11.64;59.25;94305.00;5054019;28;20506;-77
2023/04/16 01:46:46;;;;;;;5.30;3.83;;;;;;;11.66;59.03;94300.44;5038090;28;20498;-77
2023/04/16 01:49:12;;;;;;;9.10;3.80;;;;;;;11.68;59.11;94295.84;5073129;28;20473;-77
2023/04/16 01:51:39;;;;;;;4.90;3.20;;;;;;;11.70;59.27;94296.50;5072857;28;20464;-77
2023/04/16 01:54:06;;;;;;;5.20;3.53;;;;;;;11.63;59.22;94295.47;5073013;28;20448;-77
2023/04/16 01:56:34;;;;;;;10.27;4.10;;;;;;;11.58;59.82;94295.09;5072792;28;20488;-76
2023/04/16 01:59:01;;;;;;;10.73;3.53;;;;;;;11.56;59.02;94299.66;5072551;28;20445;-76
2023/04/16 02:01:29;;;;;;;7.93;4.70;;;;;;;11.55;59.87;94298.00;5075244;28;20937;-77
2023/04/16 02:03:57;;;;;;;6.83;3.00;;;;;;;11.51;61.04;94298.47;5074481;28;20445;-75
2023/04/16 02:06:23;;;;;;;5.03;3.80;;;;;;;11.52;61.30;94300.13;5076285;28;20448;-77
2023/04/16 02:08:50;;;;;;;5.23;3.40;;;;;;;11.44;60.81;94298.25;5076153;28;20928;-77
2023/04/16 02:11:17;;;;;;;3.87;3.33;;;;;;;11.41;60.73;94301.16;5076038;28;20509;-76
2023/04/16 02:13:48;;;;;;;6.40;3.30;;;;;;;11.38;61.38;94302.28;5040914;28;20436;-77
2023/04/16 02:16:15;;;;;;;7.40;3.67;;;;;;;11.34;62.04;94298.31;5076493;28;20480;-78
2023/04/16 02:18:41;;;;;;;5.23;4.33;;;;;;;11.38;60.99;94301.47;5076106;28;20570;-76
2023/04/16 02:21:08;;;;;;;3.90;3.27;;;;;;;11.40;61.75;94294.25;5076532;28;20444;-76
2023/04/16 02:23:35;;;;;;;6.10;3.53;;;;;;;11.44;61.24;94293.00;5075871;28;20856;-77
2023/04/16 02:26:03;;;;;;;5.43;3.80;;;;;;;11.48;61.77;94289.91;5076170;28;20448;-76
2023/04/16 02:28:30;;;;;;;6.00;3.10;;;;;;;11.50;61.35;94287.13;5075936;28;20459;-78
2023/04/16 02:30:58;;;;;;;3.57;3.20;;;;;;;11.48;60.79;94289.91;5076334;28;20482;-76
2023/04/16 02:33:25;;;;;;;3.97;2.90;;;;;;;11.55;60.54;94290.13;5075930;28;20998;-76
2023/04/16 02:35:52;;;;;;;3.83;3.47;;;;;;;11.57;60.95;94288.19;5040768;28;20527;-76
2023/04/16 02:38:19;;;;;;;3.77;3.43;;;;;;;11.56;60.98;94297.03;5075555;28;20459;-77
2023/04/16 02:40:46;;;;;;;5.83;3.30;;;;;;;11.44;61.35;94283.31;5075578;28;20452;-78
2023/04/16 02:43:12;;;;;;;4.93;3.50;;;;;;;11.29;61.00;94269.06;5075799;28;20502;-77
2023/04/16 02:45:39;;;;;;;4.20;3.27;;;;;;;11.24;60.69;94284.41;5075481;28;20506;-77
2023/04/16 02:48:08;;;;;;;3.23;2.80;;;;;;;11.25;61.84;94272.94;5075928;28;20457;-77
2023/04/16 02:50:35;;;;;;;3.40;3.10;;;;;;;11.20;61.60;94279.63;5075612;28;20440;-77
2023/04/16 02:53:02;;;;;;;3.13;2.70;;;;;;;11.14;61.65;94276.63;5075603;28;20836;-78
2023/04/16 02:55:29;;;;;;;3.97;3.17;;;;;;;11.12;62.48;94278.56;5075387;28;20928;-76
2023/04/16 02:58:02;;;;;;;3.57;3.27;;;;;;;11.09;62.68;94276.22;5075571;28;20488;-77
2023/04/16 03:00:29;;;;;;;4.07;3.13;;;;;;;11.06;62.99;94273.91;5075737;28;20452;-78
2023/04/16 03:02:55;;;;;;;5.33;3.23;;;;;;;11.02;62.85;94276.97;5075313;28;20465;-77
2023/04/16 03:05:24;;;;;;;8.77;4.33;;;;;;;11.04;62.89;94280.28;5075185;28;20451;-77
2023/04/16 03:07:55;;;;;;;3.70;3.07;;;;;;;11.08;63.33;94277.22;5075624;28;20448;-77
2023/04/16 03:10:22;;;;;;;4.90;3.13;;;;;;;11.08;62.42;94277.22;5057154;28;20979;-78
2023/04/16 03:12:49;;;;;;;5.23;3.83;;;;;;;11.09;63.16;94278.88;5075023;28;20463;-77
2023/04/16 03:15:16;;;;;;;9.10;2.97;;;;;;;11.09;62.73;94280.66;5075487;28;20445;-77
2023/04/16 03:17:43;;;;;;;3.70;3.40;;;;;;;11.11;62.74;94286.59;5074987;28;20479;-77
2023/04/16 03:20:10;;;;;;;7.97;3.67;;;;;;;11.14;62.80;94276.63;5039715;28;20440;-75
2023/04/16 03:22:38;;;;;;;4.23;3.60;;;;;;;11.08;62.67;94286.88;5073525;28;20514;-78
2023/04/16 03:25:06;;;;;;;4.87;3.67;;;;;;;11.11;62.32;94282.16;5075212;28;20842;-77
2023/04/16 03:27:33;;;;;;;5.03;3.27;;;;;;;11.11;62.53;94278.72;5074913;28;20433;-77
2023/04/16 03:29:59;;;;;;;3.60;3.10;;;;;;;11.06;62.92;94276.53;5075245;28;20441;-77
2023/04/16 03:32:26;;;;;;;4.40;2.97;;;;;;;11.03;62.91;94279.47;5075110;28;20451;-76
2023/04/16 03:34:53;;;;;;;4.80;3.20;;;;;;;10.92;62.73;94281.44;5074803;28;20916;-76
2023/04/16 03:37:20;;;;;;;4.50;3.23;;;;;;;10.93;63.52;94273.41;5039389;28;20484;-78
2023/04/16 03:39:48;;;;;;;7.20;3.17;;;;;;;10.80;63.31;94279.03;5074948;28;20531;-78
2023/04/16 03:42:15;;;;;;;6.73;3.20;;;;;;;10.73;64.03;94277.97;5072974;28;20460;-78
2023/04/16 03:44:42;;;;;;;3.70;3.07;;;;;;;10.73;63.69;94277.16;5074425;28;20543;-77
2023/04/16 03:47:09;;;;;;;4.60;3.57;;;;;;;10.62;64.00;94280.78;5074587;28;20452;-77
2023/04/16 03:49:36;;;;;;;8.07;3.97;;;;;;;10.59;65.02;94277.63;5074535;28;20445;-77
2023/04/16 03:52:02;;;;;;;6.35;3.80;;;;;;;10.60;65.24;94281.88;5074162;28;20442;-76
2023/04/16 03:54:29;;;;;;;6.20;3.67;;;;;;;10.67;64.78;94288.19;5074573;28;20660;-77
2023/04/16 03:56:57;;;;;;;6.17;4.20;;;;;;;10.70;66.04;94287.94;5074901;28;20574;-78
2023/04/16 03:59:24;;;;;;;4.97;3.30;;;;;;;10.80;66.27;94291.31;5074791;28;20510;-77
2023/04/16 04:01:51;;;;;;;23.13;4.00;;;;;;;10.91;65.26;94291.13;5074535;28;20448;-78
2023/04/16 04:04:18;;;;;;;3.53;3.23;;;;;;;11.02;64.10;94283.06;5039136;28;20449;-78
2023/04/16 04:06:45;;;;;;;3.10;2.77;;;;;;;11.10;64.31;94287.56;5074344;28;20585;-77
2023/04/16 04:09:12;;;;;;;4.70;3.50;;;;;;;11.08;64.09;94298.22;5074478;28;20927;-77
2023/04/16 04:11:39;;;;;;;4.33;3.60;;;;;;;11.16;64.11;94298.28;5073772;28;20449;-77
2023/04/16 04:14:07;;;;;;;3.17;2.87;;;;;;;11.18;63.46;94295.50;5073456;28;20448;-78
2023/04/16 04:16:34;;;;;;;4.87;4.47;;;;;;;11.28;63.78;94304.19;5073010;28;20441;-77
2023/04/16 04:19:00;;;;;;;3.50;3.13;;;;;;;11.32;64.04;94315.22;5074381;28;20441;-78
2023/04/16 04:21:28;;;;;;;5.10;3.57;;;;;;;11.31;63.79;94303.06;5074520;28;20486;-76
2023/04/16 04:23:55;;;;;;;4.27;3.87;;;;;;;11.31;63.67;94300.44;5054940;28;20866;-77
2023/04/16 04:26:21;;;;;;;6.57;4.40;;;;;;;11.29;64.47;94308.47;5073962;28;20436;-77
2023/04/16 04:28:48;;;;;;;5.20;3.63;;;;;;;11.26;64.19;94306.09;5055168;28;20490;-77
2023/04/16 04:31:16;;;;;;;4.80;4.00;;;;;;;11.24;63.62;94320.34;5072853;28;20437;-78
2023/04/16 04:33:43;;;;;;;4.53;3.30;;;;;;;11.24;64.57;94321.19;5072803;28;20455;-77
2023/04/16 04:36:10;;;;;;;4.67;4.20;;;;;;;11.31;64.60;94324.88;5073157;28;20514;-78
2023/04/16 04:38:37;;;;;;;5.50;4.20;;;;;;;11.34;63.64;94326.38;5073253;28;20487;-78
2023/04/16 04:41:03;;;;;;;5.97;3.87;;;;;;;11.47;63.51;94326.84;5073209;28;20463;-77
2023/04/16 04:43:30;;;;;;;10.67;4.53;;;;;;;11.48;64.66;94320.59;5073210;28;20441;-77
2023/04/16 04:46:00;;;;;;;11.93;7.10;;;;;;;11.48;65.43;94331.94;5073806;28;20449;-77
2023/04/16 04:48:28;;;;;;;14.23;8.23;;;;;;;11.41;66.61;94345.84;5055065;28;20444;-77
2023/04/16 04:50:55;;;;;;;9.83;7.10;;;;;;;11.07;69.63;94338.56;5073129;28;20498;-76
2023/04/16 04:53:22;;;;;;;7.07;5.60;;;;;;;11.15;69.34;94336.03;5073268;28;20448;-77
2023/04/16 04:55:48;;;;;;;7.90;5.13;;;;;;;10.92;72.47;94342.66;5072659;28;20455;-77
2023/04/16 04:58:15;;;;;;;5.53;4.63;;;;;;;11.06;72.33;94339.53;5072432;28;20483;-76
2023/04/16 05:00:42;;;;;;;5.50;5.00;;;;;;;11.12;73.23;94336.31;5072478;28;20440;-77
2023/04/16 05:03:11;;;;;;;5.33;4.40;;;;;;;11.22;73.46;94331.00;5072669;28;20487;-76
2023/04/16 05:05:40;;;;;;;5.20;4.03;;;;;;;11.34;73.54;94329.84;5072585;28;20520;-78
2023/04/16 05:08:06;;;;;;;12.73;4.77;;;;;;;11.45;74.64;94336.66;5072400;28;20503;-77
2023/04/16 05:10:33;;;;;;;7.63;4.80;;;;;;;11.53;73.06;94336.75;5072175;28;20898;-77
2023/04/16 05:13:00;;;;;;;6.57;4.13;;;;;;;11.62;73.72;94322.72;5072505;28;20436;-78
2023/04/16 05:15:27;;;;;;;6.30;4.57;;;;;;;11.74;72.27;94323.31;5072844;28;20445;-79
2023/04/16 05:17:54;;;;;;;8.00;5.67;;;;;;;13.09;86.37;94323.72;5036888;28;20476;-79
2023/04/16 05:20:22;;;;;;;7.07;4.80;;;;;;;13.69;78.98;94331.47;5072406;28;20502;-79
2023/04/16 05:22:51;;;;;;;6.73;4.77;;;;;;;14.53;70.66;94331.16;5073217;28;20852;-79
2023/04/16 05:25:18;;;;;;;4.63;3.97;;;;;;;15.36;65.39;94333.38;5073320;28;20523;-79
2023/04/16 05:27:44;;;;;;;6.13;4.07;;;;;;;16.08;61.93;94328.66;5072991;28;20915;-80
2023/04/16 05:30:12;;;;;;;4.07;3.77;;;;;;;16.63;59.61;94328.31;5054687;28;20849;-78
2023/04/16 05:32:39;;;;;;;5.67;4.00;;;;;;;17.10;58.73;94311.31;5073578;28;20514;-80
2023/04/16 05:35:06;;;;;;;6.93;4.50;;;;;;;17.59;64.81;94313.31;5074098;28;20495;-80
2023/04/16 05:37:33;;;;;;;12.17;4.67;;;;;;;17.85;62.99;94316.28;5076444;28;20483;-82
2023/04/16 05:40:01;;;;;;;6.17;3.93;;;;;;;17.77;61.03;94311.09;5076807;28;20501;-89
2023/04/16 05:42:28;;;;;;;9.60;4.30;;;;;;;17.71;59.45;94322.47;5076612;28;20449;-80
2023/04/16 05:44:55;;;;;;;6.70;2.97;;;;;;;17.60;60.36;94326.38;5078878;28;20469;-80
2023/04/16 05:47:21;;;;;;;19.90;5.27;;;;;;;17.27;58.33;94326.00;5076274;28;20423;-87
2023/04/16 05:49:48;;;;;;;14.80;6.03;;;;;;;17.12;58.99;94327.03;5076143;28;20516;-84
2023/04/16 05:52:15;;;;;;;8.90;4.73;;;;;;;16.97;61.55;94329.66;5074431;28;20539;-79
2023/04/16 05:54:42;;;;;;;5.77;4.80;;;;;;;16.90;61.18;94328.75;5075428;28;20477;-81
2023/04/16 05:57:10;;;;;;;7.87;5.63;;;;;;;16.76;61.49;94311.81;5063119;28;20454;-80
2023/04/16 05:59:37;;;;;;;8.60;5.20;;;;;;;16.75;62.07;94314.66;5075601;28;20496;-78
2023/04/16 06:02:04;;;;;;;8.17;4.63;;;;;;;16.87;65.69;94315.88;5070748;28;20449;-80
2023/04/16 06:04:31;;;;;;;7.80;4.77;;;;;;;16.83;62.77;94306.66;5055863;28;20497;-80
2023/04/16 06:06:57;;;;;;;7.60;5.50;;;;;;;17.29;69.43;94302.75;5074308;28;20820;-81
2023/04/16 06:09:24;;;;;;;8.83;5.57;;;;;;;18.29;63.93;94315.28;5076547;28;20850;-81
2023/04/16 06:11:51;;;;;;;9.00;5.63;;;;;;;18.66;58.80;94318.66;5041464;28;20534;-79
2023/04/16 06:14:19;;;;;;;5.93;5.33;;;;;;;18.54;53.13;94313.88;5076237;28;20475;-80
2023/04/16 06:23:29;;;;;;;5.60;4.13;;;;;;;17.78;52.41;94314.56;5054984;28;20473;-80
2023/04/16 06:25:56;;;;;;;5.00;4.17;;;;;;;17.54;53.03;94315.69;5075083;28;20447;-78
2023/04/16 06:28:23;;;;;;;6.33;5.73;;;;;;;17.55;57.03;94312.88;5076104;28;20446;-79
2023/04/16 06:30:51;;;;;;;8.07;6.63;;;;;;;17.32;53.68;94318.28;5076049;28;20446;-81
2023/04/16 06:33:18;;;;;;;6.13;5.63;;;;;;;17.11;53.18;94304.16;5076503;28;20462;-82
2023/04/16 06:35:45;;;;;;;5.80;5.00;;;;;;;17.49;56.99;94316.28;5076036;28;20452;-79
2023/04/16 06:38:12;;;;;;;10.40;5.23;;;;;;;17.53;52.32;94306.91;5076041;28;20474;-80
2023/04/16 06:40:38;;;;;;;6.03;4.40;;;;;;;17.61;52.94;94305.97;5076467;28;20450;-79
2023/04/16 06:43:05;;;;;;;6.50;4.90;;;;;;;17.15;51.23;94305.44;5062572;28;20467;-79
2023/04/16 06:45:33;;;;;;;8.80;5.70;;;;;;;17.17;50.72;94319.34;5075549;28;20437;-79
2023/04/16 06:48:02;;;;;;;7.50;5.50;;;;;;;17.39;57.10;94312.28;5075906;28;20911;-78
2023/04/16 06:50:29;;;;;;;10.87;6.40;;;;;;;17.59;53.06;94319.44;5075785;28;20435;-79
2023/04/16 06:52:56;;;;;;;9.17;6.70;;;;;;;18.06;57.95;94317.31;5059455;28;20447;-77
2023/04/16 06:55:23;;;;;;;13.90;5.90;;;;;;;18.90;56.65;94326.22;5055570;28;20456;-78
2023/04/16 06:57:50;;;;;;;10.03;6.90;;;;;;;19.72;55.60;94312.94;5063392;28;21068;-80
2023/04/16 07:00:17;;;;;;;8.30;5.90;;;;;;;20.14;51.59;94313.63;5076711;28;20442;-79
2023/04/16 07:02:44;;;;;;;8.50;5.97;;;;;;;20.49;50.25;94308.16;5073614;28;20928;-79
2023/04/16 07:05:12;;;;;;;8.10;6.60;;;;;;;20.82;52.98;94298.31;5075768;28;20438;-80
2023/04/16 07:07:39;;;;;;;10.50;6.20;;;;;;;21.19;49.13;94301.31;5075732;28;20445;-80
2023/04/16 07:10:07;;;;;;;8.03;6.70;;;;;;;21.39;49.75;94306.59;5075265;28;20445;-79
2023/04/16 07:12:33;;;;;;;7.03;5.50;;;;;;;21.59;48.03;94310.03;5070210;28;20954;-79
2023/04/16 07:15:00;;;;;;;5.93;5.33;;;;;;;21.52;42.37;94314.56;5055269;28;20955;-79
2023/04/16 07:17:27;;;;;;;6.10;4.90;;;;;;;21.01;41.00;94312.63;5068458;28;20444;-78
2023/04/16 07:19:54;;;;;;;8.67;6.03;;;;;;;20.54;45.76;94313.72;5075251;28;20431;-78
2023/04/16 07:22:22;;;;;;;12.57;7.03;;;;;;;20.38;55.29;94306.91;5075152;28;20519;-77
2023/04/16 07:24:49;;;;;;;12.73;6.90;;;;;;;20.69;52.39;94314.31;5075384;28;20443;-78
2023/04/16 07:27:16;;;;;;;7.10;5.03;;;;;;;20.90;47.69;94311.44;5074944;28;20467;-79
2023/04/16 07:29:44;;;;;;;9.87;5.47;;;;;;;20.69;42.02;94312.47;5074821;28;20545;-79
2023/04/16 07:32:12;;;;;;;9.60;5.83;;;;;;;20.25;46.89;94313.06;5075071;28;20478;-79
2023/04/16 07:34:38;;;;;;;8.33;6.00;;;;;;;19.49;43.40;94317.72;5074676;28;20927;-80
2023/04/16 07:37:05;;;;;;;7.87;5.53;;;;;;;19.23;46.30;94314.94;5075433;28;20436;-80
2023/04/16 07:39:33;;;;;;;6.70;4.73;;;;;;;18.88;45.73;94306.97;5075797;28;20500;-78
2023/04/16 07:42:01;;;;;;;5.47;3.93;;;;;;;18.25;46.08;94309.53;5074986;28;20430;-78
2023/04/16 07:44:27;;;;;;;10.87;4.67;;;;;;;17.40;48.94;94305.97;5074631;28;20975;-79
2023/04/16 07:46:54;;;;;;;8.07;6.10;;;;;;;17.18;49.68;94305.88;5074024;28;20931;-77
2023/04/16 07:49:21;;;;;;;8.23;6.50;;;;;;;17.17;51.14;94304.25;5075041;28;20498;-79
2023/04/16 07:51:48;;;;;;;6.97;5.70;;;;;;;17.26;51.56;94311.09;5074556;28;20807;-76
2023/04/16 07:54:15;;;;;;;8.00;5.00;;;;;;;17.32;54.91;94306.88;5074912;28;20445;-78
2023/04/16 07:56:43;;;;;;;8.10;5.80;;;;;;;17.59;52.39;94308.00;5074776;28;20542;-78
2023/04/16 07:59:13;;;;;;;9.30;5.13;;;;;;;17.86;52.04;94299.34;5073805;28;20484;-79
2023/04/16 08:01:40;;;;;;;10.93;5.83;;;;;;;17.99;50.25;94300.50;5055660;28;20437;-78
2023/04/16 08:04:07;;;;;;;10.70;5.17;;;;;;;18.17;52.23;94300.84;5074509;28;20455;-78
2023/04/16 08:06:33;;;;;;;6.90;4.70;;;;;;;17.90;49.95;94292.66;5074685;28;20848;-78
2023/04/16 08:09:00;;;;;;;4.77;3.33;;;;;;;18.03;50.65;94288.50;5075028;28;20454;-78
2023/04/16 08:11:27;;;;;;;6.40;3.70;;;;;;;18.09;50.49;94293.84;5076208;28;20437;-77
2023/04/16 08:13:55;;;;;;;17.23;4.30;;;;;;;18.14;51.11;94282.66;5077877;28;20443;-77
2023/04/16 08:16:22;;;;;;;4.80;4.37;;;;;;;18.17;49.47;94291.06;5075933;28;20444;-77
2023/04/16 08:18:49;;;;;;;5.20;4.37;;;;;;;18.37;53.15;94285.91;5077046;28;20488;-77
2023/04/16 08:21:16;;;;;;;6.67;3.97;;;;;;;18.59;49.08;94294.69;5077331;28;20931;-78
2023/04/16 08:23:43;;;;;;;6.43;3.70;;;;;;;18.60;48.33;94290.19;5075673;28;20530;-78
2023/04/16 08:26:10;;;;;;;7.03;4.30;;;;;;;18.97;50.94;94287.19;5075568;28;20453;-78
2023/04/16 08:28:37;;;;;;;6.33;3.67;;;;;;;19.44;50.59;94280.25;5076290;28;20438;-76
2023/04/16 08:31:05;;;;;;;5.53;4.50;;;;;;;19.79;50.58;94279.16;5076178;28;21071;-78
2023/04/16 08:33:32;;;;;;;5.47;4.10;;;;;;;19.65;50.94;94281.97;5080087;28;20441;-78
2023/04/16 08:35:59;;;;;;;8.50;3.47;;;;;;;19.77;49.53;94288.38;5073194;28;20512;-78
2023/04/16 08:38:26;;;;;;;7.50;3.80;;;;;;;20.08;46.30;94279.81;5072457;28;20991;-77
2023/04/16 08:40:53;;;;;;;12.20;4.20;;;;;;;20.49;49.24;94276.97;5073540;28;20454;-78
2023/04/16 08:43:23;;;;;;;10.70;4.23;;;;;;;20.88;48.27;94273.47;5073526;28;20450;-81
2023/04/16 08:45:55;;;;;;;7.67;3.90;;;;;;;21.46;47.83;94262.03;5054548;28;20447;-80
2023/04/16 08:48:24;;;;;;;7.03;3.80;;;;;;;21.51;42.40;94271.03;5073614;28;20440;-80
2023/04/16 08:50:53;;;;;;;7.20;4.27;;;;;;;21.22;43.99;94260.84;5073280;28;20441;-80
2023/04/16 08:53:26;;;;;;;5.20;3.80;;;;;;;20.75;45.40;94260.16;5073625;28;20534;-80
2023/04/16 08:55:55;;;;;;;11.20;4.10;;;;;;;19.98;46.47;94266.91;5074167;28;20439;-88
2023/04/16 08:58:23;;;;;;;8.60;4.43;;;;;;;19.82;45.66;94253.16;5074629;28;20479;-82
2023/04/16 09:00:50;;;;;;;4.73;3.70;;;;;;;19.94;47.02;94262.16;5073512;28;20449;-80
2023/04/16 09:03:18;;;;;;;12.40;4.30;;;;;;;20.02;46.48;94254.81;5073232;28;21021;-80
2023/04/16 09:05:47;;;;;;;6.43;3.93;;;;;;;20.04;47.69;94257.28;5073155;28;20444;-79
2023/04/16 09:08:14;;;;;;;4.90;3.60;;;;;;;20.08;47.95;94253.19;5073873;28;20796;-83
2023/04/16 09:10:41;;;;;;;5.47;3.93;;;;;;;19.99;47.06;94244.56;5069680;28;20459;-81
2023/04/16 09:13:12;;;;;;;8.60;3.50;;;;;;;19.81;47.14;94247.00;5072687;28;20440;-80
2023/04/16 09:15:39;;;;;;;6.53;3.27;;;;;;;19.75;45.96;94245.97;5073329;28;20486;-80
2023/04/16 09:18:07;;;;;;;5.90;3.90;;;;;;;19.68;46.53;94228.34;5073328;28;20449;-79
2023/04/16 09:20:34;;;;;;;11.77;3.37;;;;;;;19.60;45.37;94233.84;5073647;28;20438;-80
2023/04/16 09:23:03;;;;;;;7.77;4.10;;;;;;;19.62;45.74;94237.94;5072986;28;20820;-78
2023/04/16 09:25:33;;;;;;;4.30;3.60;;;;;;;19.66;47.78;94244.53;5073217;28;20455;-77
2023/04/16 09:28:00;;;;;;;5.60;3.07;;;;;;;19.80;46.24;94240.03;5073228;28;20535;-85
2023/04/16 09:30:28;;;;;;;3.80;3.30;;;;;;;19.89;45.18;94238.00;5073372;28;20456;-78
2023/04/16 09:33:15;;;;;;;5.10;3.20;;;;;;;19.96;45.06;94236.19;5072885;28;20448;-78
2023/04/16 09:35:46;;;;;;;7.00;3.27;;;;;;;19.82;45.91;94237.16;5054684;28;20433;-79
2023/04/16 09:38:15;;;;;;;6.63;3.40;;;;;;;19.72;45.98;94238.38;5054613;28;20470;-77
2023/04/16 09:40:42;;;;;;;3.13;2.77;;;;;;;19.66;46.61;94228.56;5073508;28;20447;-77
2023/04/16 09:43:11;;;;;;;3.17;2.97;;;;;;;19.63;45.26;94228.09;5073018;28;20451;-77
2023/04/16 09:45:49;;;;;;;5.53;3.40;;;;;;;19.57;45.42;94228.91;5073292;28;20445;-77
2023/04/16 09:48:16;;;;;;;3.73;3.40;;;;;;;19.45;45.69;94221.50;5026298;28;20476;-77
2023/04/16 09:50:50;;;;;;;5.17;3.37;;;;;;;19.34;46.50;94230.03;5073006;28;20450;-78
2023/04/16 09:53:28;;;;;;;5.60;3.47;;;;;;;19.17;46.38;94224.28;5059864;28;20494;-78
2023/04/16 09:55:56;;;;;;;4.80;2.87;;;;;;;19.19;47.12;94221.41;5073350;28;20457;-78
2023/04/16 09:58:24;;;;;;;4.63;2.97;;;;;;;19.27;47.05;94223.88;5073619;28;20863;-82
2023/04/16 10:00:59;;;;;;;5.03;3.63;;;;;;;19.30;46.58;94212.03;5078636;28;20434;-82
2023/04/16 10:03:30;;;;;;;9.40;4.13;;;;;;;19.31;46.79;94211.81;5082578;28;20448;-81
2023/04/16 10:06:00;;;;;;;6.50;3.53;;;;;;;19.33;47.36;94207.13;5075192;28;20441;-80
2023/04/16 10:08:29;;;;;;;3.77;3.20;;;;;;;19.35;46.73;94217.56;5080951;28;20436;-80
2023/04/16 10:10:56;;;;;;;4.10;3.23;;;;;;;19.32;47.50;94217.97;5084357;28;20436;-81
2023/04/16 10:13:26;;;;;;;7.30;3.60;;;;;;;19.23;46.83;94212.00;5084283;28;20473;-81
2023/04/16 10:15:56;;;;;;;10.87;4.27;;;;;;;19.18;47.01;94209.97;5083472;28;20438;-80
2023/04/16 10:18:23;;;;;;;6.77;3.20;;;;;;;19.16;46.63;94203.19;5081410;28;20440;-80
2023/04/16 10:20:50;;;;;;;7.07;3.77;;;;;;;19.06;46.98;94200.88;5069035;28;20443;-80
2023/04/16 10:23:19;;;;;;;7.93;4.07;;;;;;;19.19;47.43;94203.63;5061524;28;20548;-81
2023/04/16 10:25:48;;;;;;;6.53;3.00;;;;;;;19.28;45.90;94195.44;5064240;28;20458;-80
2023/04/16 10:28:15;;;;;;;5.10;2.83;;;;;;;19.29;46.37;94191.75;5065581;28;20431;-81
2023/04/16 10:30:51;;;;;;;5.13;3.70;;;;;;;19.34;46.71;94191.97;5067002;28;20435;-81
2023/04/16 10:33:21;;;;;;;5.00;3.30;;;;;;;19.50;46.95;94186.31;5065657;28;20489;-81
2023/04/16 10:35:49;;;;;;;4.03;3.10;;;;;;;19.59;46.05;94186.94;5063799;28;20446;-80
2023/04/16 10:38:25;;;;;;;7.20;3.10;;;;;;;19.65;46.46;94181.63;5074110;28;20452;-79
2023/04/16 10:41:00;;;;;;;4.73;2.57;;;;;;;19.86;47.13;94182.47;5063040;28;20445;-80
2023/04/16 10:43:28;;;;;;;3.60;3.17;;;;;;;20.02;45.71;94190.91;5072417;28;20442;-81
2023/04/16 10:45:55;;;;;;;3.67;3.13;;;;;;;20.17;44.75;94182.69;5066116;28;20457;-79
2023/04/16 10:48:24;;;;;;;3.23;2.93;;;;;;;20.29;45.05;94180.22;5064751;28;20437;-81
2023/04/16 10:50:57;;;;;;;9.03;3.50;;;;;;;20.43;44.22;94176.53;5072753;28;20451;-79
2023/04/16 10:53:25;;;;;;;5.50;2.80;;;;;;;20.51;43.76;94178.16;5075063;28;20450;-80
2023/04/16 10:56:14;;;;;;;3.67;3.10;;;;;;;20.07;44.23;94184.94;5074546;28;20450;-80
2023/04/16 10:58:41;;;;;;;9.23;3.10;;;;;;;20.14;43.83;94177.78;5012314;28;21016;-82
2023/04/16 11:01:13;;;;;;;6.03;2.67;;;;;;;20.14;44.16;94172.44;5008507;28;20452;-79
2023/04/16 11:03:47;;;;;;;6.10;3.40;;;;;;;20.11;45.43;94170.19;5008481;28;20447;-78
2023/04/16 11:06:16;;;;;;;4.53;2.80;;;;;;;19.89;44.77;94174.09;5009974;28;20442;-80
2023/04/16 11:08:46;;;;;;;4.07;2.63;;;;;;;19.61;45.16;94164.44;5012883;28;20454;-79
2023/04/16 11:11:13;;;;;;;5.63;3.57;;;;;;;19.53;46.23;94161.97;5004764;28;20454;-79
2023/04/16 11:13:45;;;;;;;5.40;2.87;;;;;;;19.45;45.14;94157.63;5000431;28;20579;-79
2023/04/16 11:16:13;;;;;;;10.23;3.17;;;;;;;19.22;45.50;94157.16;5003357;28;20455;-80
2023/04/16 11:18:41;;;;;;;3.67;3.00;;;;;;;19.30;45.68;94159.63;4996503;28;20508;-79
2023/04/16 11:21:09;;;;;;;5.17;2.60;;;;;;;19.22;46.01;94164.34;4995626;28;20531;-78
2023/04/16 11:23:49;;;;;;;5.23;2.57;;;;;;;19.07;46.57;94159.97;4994915;28;20505;-79
2023/04/16 11:26:24;;;;;;;5.00;2.67;;;;;;;19.19;45.40;94157.56;4994717;28;20438;-79
2023/04/16 11:28:53;;;;;;;5.60;2.67;;;;;;;19.18;46.35;94151.44;4994926;28;21154;-78
2023/04/16 11:31:20;;;;;;;6.67;3.50;;;;;;;19.32;46.13;94154.13;4997497;28;20451;-79
2023/04/16 11:33:46;;;;;;;4.10;2.57;;;;;;;19.41;45.14;94147.59;4994266;28;20980;-78
2023/04/16 11:36:13;;;;;;;5.00;2.10;;;;;;;19.48;43.87;94145.75;5038864;28;20459;-78
2023/04/16 11:38:41;;;;;;;4.90;2.93;;;;;;;19.39;43.85;94136.34;5056045;28;20483;-79
2023/04/16 11:41:09;;;;;;;4.80;2.53;;;;;;;19.53;43.57;94134.50;5057529;28;20536;-79